Time;durP1;ratioP1;P1;durP2;ratioP2;P2;SDS_P1;SDS_P2;PMS_P1;PMS_P2;Temp;Humidity;BMP_temperature;BMP_pressure;BME280_temperature;BME280_humidity;BME280_pressure;Samples;Min_cycle;Max_cycle;Signal;HPM_P1;HPM_P2
2023/01/30 00:00:23;;;;;;;19.34;17.46;;;;;;;1.32;70.72;100742.86;464671;111;922899;-71
2023/01/30 00:01:29;;;;;;;19.72;17.81;;;;;;;1.33;70.73;100736.47;468887;111;922713;-72
2023/01/30 00:02:32;;;;;;;17.92;16.30;;;;;;;1.36;70.55;100746.08;461980;114;922998;-72
2023/01/30 00:03:36;;;;;;;17.14;15.76;;;;;;;1.36;70.45;100738.87;457496;114;922767;-71
2023/01/30 00:04:39;;;;;;;18.16;16.46;;;;;;;1.37;70.51;100737.88;459972;113;923731;-73
2023/01/30 00:05:42;;;;;;;18.69;16.86;;;;;;;1.39;70.66;100735.86;471428;111;922614;-72
2023/01/30 00:06:45;;;;;;;19.29;17.74;;;;;;;1.43;70.62;100737.27;461295;111;922715;-72
2023/01/30 00:07:49;;;;;;;18.42;16.97;;;;;;;1.47;70.81;100741.34;457725;114;923112;-73
2023/01/30 00:08:52;;;;;;;17.69;16.27;;;;;;;1.52;70.71;100743.56;463580;114;923069;-72
2023/01/30 00:09:55;;;;;;;18.67;17.11;;;;;;;1.55;70.74;100740.55;462153;114;923077;-72
2023/01/30 00:11:07;;;;;;;18.24;16.81;;;;;;;1.61;70.66;100731.88;462870;114;930417;-72
2023/01/30 00:12:11;;;;;;;18.14;16.44;;;;;;;1.61;70.66;100731.88;462042;114;922688;-73
2023/01/30 00:13:14;;;;;;;18.83;17.19;;;;;;;1.63;70.50;100737.96;460663;113;922586;-73
2023/01/30 00:14:17;;;;;;;18.29;16.74;;;;;;;1.64;70.31;100731.59;457386;116;922619;-72
2023/01/30 00:15:21;;;;;;;17.59;16.17;;;;;;;1.64;70.30;100732.44;462355;111;930399;-72
2023/01/30 00:16:24;;;;;;;20.27;18.51;;;;;;;1.66;70.15;100734.95;475009;111;922493;-73
2023/01/30 00:17:28;;;;;;;21.92;20.02;;;;;;;1.67;70.20;100731.27;466993;111;922530;-71
2023/01/30 00:18:31;;;;;;;20.60;18.89;;;;;;;1.70;70.18;100730.13;460486;114;922881;-73
2023/01/30 00:19:34;;;;;;;19.04;17.31;;;;;;;1.73;70.26;100730.66;465096;113;922404;-73
2023/01/30 00:20:38;;;;;;;19.17;17.50;;;;;;;1.75;70.07;100728.67;471505;111;922548;-72
2023/01/30 00:21:41;;;;;;;18.09;16.32;;;;;;;1.77;69.93;100731.19;475045;111;922686;-72
2023/01/30 00:22:44;;;;;;;19.85;18.16;;;;;;;1.77;69.77;100737.41;474981;111;922518;-71
2023/01/30 00:23:49;;;;;;;18.23;16.74;;;;;;;1.76;69.73;100730.37;454108;116;922595;-71
2023/01/30 00:24:52;;;;;;;18.46;16.94;;;;;;;1.77;69.50;100734.72;457534;113;922489;-72
2023/01/30 00:25:55;;;;;;;19.19;17.49;;;;;;;1.76;69.46;100730.37;474124;111;922617;-72
2023/01/30 00:26:59;;;;;;;20.09;18.17;;;;;;;1.75;69.57;100725.14;474847;111;922604;-72
2023/01/30 00:28:02;;;;;;;19.14;17.52;;;;;;;1.77;69.33;100732.03;474933;111;922558;-70
2023/01/30 00:29:07;;;;;;;19.16;17.52;;;;;;;1.75;69.31;100736.73;465041;111;922474;-72
2023/01/30 00:30:11;;;;;;;19.42;17.67;;;;;;;1.76;69.30;100729.52;465142;111;922552;-73
2023/01/30 00:31:14;;;;;;;18.48;16.97;;;;;;;1.77;69.21;100731.19;465372;114;930505;-73
2023/01/30 00:32:17;;;;;;;17.52;15.93;;;;;;;1.77;69.08;100726.66;464731;114;930492;-73
2023/01/30 00:33:22;;;;;;;18.64;16.95;;;;;;;1.77;69.11;100734.72;461676;114;922892;-73
2023/01/30 00:34:27;;;;;;;18.20;16.77;;;;;;;1.78;69.17;100735.56;463424;114;922545;-73
2023/01/30 00:35:30;;;;;;;24.72;22.37;;;;;;;1.80;69.20;100730.89;466202;111;922984;-72
2023/01/30 00:36:33;;;;;;;23.51;21.52;;;;;;;1.82;69.38;100737.78;461387;114;922471;-72
2023/01/30 00:37:37;;;;;;;20.16;18.47;;;;;;;1.85;69.35;100732.11;457425;116;922523;-72
2023/01/30 00:38:40;;;;;;;21.09;19.18;;;;;;;1.88;69.24;100734.48;457363;116;922636;-72
2023/01/30 00:39:43;;;;;;;18.54;16.98;;;;;;;1.91;69.20;100733.34;460952;114;922678;-72
2023/01/30 00:40:47;;;;;;;19.83;18.07;;;;;;;1.92;69.10;100737.72;472468;111;922529;-72
2023/01/30 00:47:21;;;;;;;19.22;17.54;;;;;;;1.83;68.58;100735.95;457459;114;922692;-73
2023/01/30 00:48:24;;;;;;;20.23;18.32;;;;;;;1.79;68.41;100746.17;464390;114;922505;-72
2023/01/30 00:49:28;;;;;;;19.68;17.98;;;;;;;1.77;68.38;100742.78;464409;113;922540;-72
2023/01/30 00:50:41;;;;;;;20.51;18.46;;;;;;;1.76;68.38;100740.27;467578;111;922432;-72
2023/01/30 00:51:38;;;;;;;20.67;18.76;;;;;;;1.74;68.49;100745.80;469568;111;930453;-73
2023/01/30 00:52:41;;;;;;;19.98;18.11;;;;;;;1.73;68.36;100738.72;457431;116;922490;-73
2023/01/30 00:53:44;;;;;;;19.41;17.78;;;;;;;1.72;68.35;100739.72;461826;114;922665;-73
2023/01/30 00:54:50;;;;;;;19.58;17.90;;;;;;;1.71;68.24;100738.02;451391;116;922726;-73
2023/01/30 00:55:54;;;;;;;19.70;18.09;;;;;;;1.70;68.20;100730.98;458912;114;922650;-73
2023/01/30 00:56:57;;;;;;;18.69;17.16;;;;;;;1.68;67.96;100741.03;459110;114;922504;-72
2023/01/30 00:58:00;;;;;;;19.85;18.16;;;;;;;1.65;67.76;100734.10;461866;114;922959;-72
2023/01/30 00:59:04;;;;;;;19.77;18.12;;;;;;;1.61;67.76;100732.73;461514;113;922681;-72
2023/01/30 01:00:08;;;;;;;20.91;19.17;;;;;;;1.60;67.83;100735.56;462920;114;922498;-72
2023/01/30 01:01:11;;;;;;;19.94;18.14;;;;;;;1.57;67.79;100736.73;463259;114;922557;-71
2023/01/30 01:02:14;;;;;;;20.06;18.29;;;;;;;1.55;67.69;100732.49;462041;114;922557;-73
2023/01/30 01:03:18;;;;;;;19.82;17.93;;;;;;;1.50;67.78;100735.64;461574;114;923714;-72
2023/01/30 01:04:22;;;;;;;20.29;18.56;;;;;;;1.49;67.78;100736.63;463011;114;922847;-72
2023/01/30 01:05:25;;;;;;;20.42;18.71;;;;;;;1.47;67.69;100737.80;466670;111;930461;-73
2023/01/30 01:06:29;;;;;;;21.52;19.59;;;;;;;1.45;67.74;100742.47;466025;111;922505;-72
2023/01/30 01:07:32;;;;;;;20.19;18.48;;;;;;;1.41;67.54;100731.20;460727;114;922534;-72
2023/01/30 01:08:35;;;;;;;22.07;18.54;;;;;;;1.38;67.61;100736.05;462146;114;922681;-72
2023/01/30 01:09:39;;;;;;;20.06;18.36;;;;;;;1.35;67.61;100730.95;456547;114;930509;-72
2023/01/30 01:10:42;;;;;;;21.99;20.17;;;;;;;1.34;67.65;100740.00;456077;114;922525;-73
2023/01/30 01:11:46;;;;;;;20.12;18.52;;;;;;;1.34;67.74;100740.00;461709;114;930476;-71
2023/01/30 01:12:51;;;;;;;20.59;18.85;;;;;;;1.33;67.74;100738.31;462180;114;930481;-72
2023/01/30 01:13:57;;;;;;;20.84;18.88;;;;;;;1.31;67.72;100735.80;455321;116;922453;-72
2023/01/30 01:15:00;;;;;;;21.57;19.42;;;;;;;1.29;67.63;100736.93;455444;114;922627;-73
2023/01/30 01:16:04;;;;;;;20.81;19.03;;;;;;;1.27;67.75;100734.38;462180;114;922535;-73
2023/01/30 01:17:07;;;;;;;19.81;18.19;;;;;;;1.25;67.84;100729.19;457648;114;930996;-72
2023/01/30 01:18:10;;;;;;;19.98;18.26;;;;;;;1.27;67.92;100733.57;454283;117;922428;-72
2023/01/30 01:19:13;;;;;;;21.10;19.22;;;;;;;1.27;68.01;100730.88;458724;114;922531;-73
2023/01/30 01:20:18;;;;;;;20.61;18.91;;;;;;;1.28;68.12;100729.86;460877;114;922897;-72
2023/01/30 01:21:22;;;;;;;21.22;19.36;;;;;;;1.31;68.11;100730.42;454131;114;922435;-73
2023/01/30 01:22:25;;;;;;;20.68;18.82;;;;;;;1.31;68.05;100732.27;452938;117;922458;-72
2023/01/30 01:23:28;;;;;;;20.97;19.19;;;;;;;1.31;67.85;100734.95;454640;114;922476;-71
2023/01/30 01:24:31;;;;;;;20.57;18.81;;;;;;;1.31;67.97;100734.95;454695;114;922923;-72
2023/01/30 01:25:34;;;;;;;20.83;19.04;;;;;;;1.30;67.87;100734.09;461494;114;922563;-72
2023/01/30 01:26:38;;;;;;;21.09;19.26;;;;;;;1.30;67.79;100734.09;457256;114;922639;-73
2023/01/30 01:27:41;;;;;;;22.35;20.14;;;;;;;1.30;67.82;100735.94;455433;114;922701;-73
2023/01/30 01:28:45;;;;;;;20.31;18.47;;;;;;;1.29;67.73;100731.55;455818;114;922897;-72
2023/01/30 01:29:48;;;;;;;20.97;18.87;;;;;;;1.28;67.63;100732.55;456716;114;922534;-72
2023/01/30 01:30:51;;;;;;;20.99;19.05;;;;;;;1.25;67.55;100731.87;461961;114;930504;-72
2023/01/30 01:31:56;;;;;;;21.01;19.23;;;;;;;1.24;67.76;100723.96;462004;114;922611;-73
2023/01/30 01:33:00;;;;;;;21.67;19.74;;;;;;;1.24;67.77;100722.13;462077;114;922462;-72
2023/01/30 01:34:03;;;;;;;20.43;18.71;;;;;;;1.25;67.78;100729.19;458458;113;922821;-73
2023/01/30 01:35:07;;;;;;;20.69;18.96;;;;;;;1.25;67.76;100722.97;455987;114;922802;-72
2023/01/30 01:36:10;;;;;;;20.89;19.01;;;;;;;1.26;67.65;100730.03;454973;114;922562;-71
2023/01/30 01:37:15;;;;;;;20.46;18.76;;;;;;;1.27;67.80;100734.38;454186;116;922567;-72
2023/01/30 01:38:18;;;;;;;21.01;19.24;;;;;;;1.29;67.77;100731.55;460091;113;922526;-72
2023/01/30 01:39:22;;;;;;;21.49;19.47;;;;;;;1.31;67.83;100735.80;462339;114;922514;-72
2023/01/30 01:41:47;;;;;;;21.19;19.28;;;;;;;1.37;68.07;100737.03;458086;114;922908;-73
2023/01/30 01:42:50;;;;;;;20.97;19.17;;;;;;;1.41;67.96;100738.41;462120;114;922370;-73
2023/01/30 01:44:06;;;;;;;20.77;19.09;;;;;;;1.43;67.88;100736.42;462092;113;922524;-73
2023/01/30 01:45:22;;;;;;;21.04;19.32;;;;;;;1.42;67.58;100740.11;461547;114;922509;-72
2023/01/30 01:46:28;;;;;;;20.31;18.64;;;;;;;1.41;67.49;100735.72;454134;114;923361;-73
2023/01/30 01:47:33;;;;;;;20.27;18.52;;;;;;;1.41;67.65;100733.03;455409;116;922526;-73
2023/01/30 01:48:55;;;;;;;20.55;18.87;;;;;;;1.41;67.76;100738.41;459072;113;922617;-73
2023/01/30 01:49:58;;;;;;;22.51;20.31;;;;;;;1.43;67.92;100728.37;454650;114;922508;-73
2023/01/30 01:51:04;;;;;;;20.94;19.15;;;;;;;1.47;67.80;100732.43;461528;114;922579;-72
2023/01/30 01:52:14;;;;;;;20.82;18.97;;;;;;;1.48;67.80;100736.81;455759;113;922599;-73
2023/01/30 01:53:20;;;;;;;20.91;19.23;;;;;;;1.49;67.60;100733.13;459080;113;922549;-73
2023/01/30 01:54:27;;;;;;;21.35;19.47;;;;;;;1.49;67.43;100738.50;461987;114;922909;-71
2023/01/30 01:55:30;;;;;;;21.20;19.22;;;;;;;1.48;67.37;100745.72;461845;114;923250;-72
2023/01/30 01:56:36;;;;;;;20.73;18.83;;;;;;;1.49;67.23;100746.56;456523;114;922360;-72
2023/01/30 01:57:46;;;;;;;20.76;18.63;;;;;;;1.47;67.16;100745.86;462046;114;931077;-71
2023/01/30 01:58:52;;;;;;;21.43;19.68;;;;;;;1.46;67.04;100739.64;454078;116;922575;-72
2023/01/30 02:00:03;;;;;;;21.86;20.09;;;;;;;1.45;66.99;100734.41;454743;114;922591;-72
2023/01/30 02:01:08;;;;;;;21.24;19.30;;;;;;;1.43;66.80;100729.22;453808;116;922453;-72
2023/01/30 02:02:13;;;;;;;20.77;18.82;;;;;;;1.39;66.63;100729.64;454754;115;922490;-72
2023/01/30 02:03:23;;;;;;;21.12;19.22;;;;;;;1.35;66.67;100730.95;454122;116;922792;-70
2023/01/30 02:05:54;;;;;;;20.52;18.85;;;;;;;1.33;66.72;100738.31;459637;114;922558;-73
2023/01/30 02:06:59;;;;;;;21.38;19.53;;;;;;;1.29;66.50;100736.93;454487;114;922524;-73
2023/01/30 02:08:05;;;;;;;21.55;19.71;;;;;;;1.23;66.34;100747.28;454937;114;922637;-72
2023/01/30 02:09:09;;;;;;;20.06;18.47;;;;;;;1.18;66.43;100738.84;446256;117;922899;-73
2023/01/30 02:10:16;;;;;;;21.85;20.13;;;;;;;1.15;66.59;100736.47;449501;117;923075;-73
2023/01/30 02:11:26;;;;;;;20.74;19.08;;;;;;;1.15;66.65;100733.78;450691;117;922554;-72
2023/01/30 02:12:30;;;;;;;21.01;19.00;;;;;;;1.15;66.74;100731.09;445017;118;922574;-73
2023/01/30 02:13:33;;;;;;;20.54;18.79;;;;;;;1.16;66.76;100734.59;440087;120;922694;-73
2023/01/30 02:14:37;;;;;;;20.66;18.77;;;;;;;1.15;66.87;100728.41;448723;117;922586;-73
2023/01/30 02:15:41;;;;;;;20.11;18.50;;;;;;;1.16;66.81;100723.86;452627;117;930562;-72
2023/01/30 02:16:46;;;;;;;20.19;18.61;;;;;;;1.15;66.77;100728.41;453006;117;922586;-72
2023/01/30 02:17:49;;;;;;;19.61;18.01;;;;;;;1.16;66.85;100727.39;450128;117;923096;-72
2023/01/30 02:18:53;;;;;;;20.69;19.07;;;;;;;1.16;66.74;100724.70;448998;117;922451;-72
2023/01/30 02:20:19;;;;;;;20.04;18.34;;;;;;;1.17;66.79;100725.55;445199;117;922562;-72
2023/01/30 02:21:35;;;;;;;20.77;18.86;;;;;;;1.17;66.76;100723.72;445994;116;922519;-72
2023/01/30 02:23:10;;;;;;;19.24;17.72;;;;;;;1.18;66.65;100713.81;446679;116;922691;-73
2023/01/30 02:24:23;;;;;;;19.85;18.23;;;;;;;1.19;66.76;100715.52;444041;117;923006;-73
2023/01/30 02:25:49;;;;;;;20.53;18.71;;;;;;;1.20;66.84;100717.21;448559;117;922596;-73
2023/01/30 02:27:05;;;;;;;19.43;17.88;;;;;;;1.21;66.88;100718.91;452859;117;922493;-73
2023/01/30 02:28:34;;;;;;;20.96;19.18;;;;;;;1.22;66.80;100716.05;434888;121;923029;-72
2023/01/30 02:30:08;;;;;;;20.59;18.74;;;;;;;1.22;66.81;100716.05;448320;117;922582;-73
2023/01/30 02:31:35;;;;;;;20.48;18.60;;;;;;;1.24;66.93;100716.75;437822;121;922973;-73
2023/01/30 02:33:08;;;;;;;23.13;20.77;;;;;;;1.28;67.10;100713.75;437970;120;922655;-72
2023/01/30 02:34:17;;;;;;;21.01;19.23;;;;;;;1.31;67.17;100708.09;446298;118;922607;-73
2023/01/30 02:35:27;;;;;;;22.26;20.44;;;;;;;1.31;67.03;100713.46;445253;119;922698;-72
2023/01/30 02:37:05;;;;;;;23.27;21.37;;;;;;;1.33;67.04;100714.13;422720;123;922799;-73
2023/01/30 02:38:18;;;;;;;22.36;20.49;;;;;;;1.35;67.03;100709.46;454733;114;922599;-74
2023/01/30 02:39:51;;;;;;;21.86;20.22;;;;;;;1.35;66.84;100722.89;455067;116;922863;-72
2023/01/30 02:41:07;;;;;;;22.72;20.72;;;;;;;1.33;66.63;100727.56;455475;114;922442;-71
2023/01/30 02:42:20;;;;;;;22.51;20.65;;;;;;;1.31;66.56;100722.37;454606;116;922590;-72
2023/01/30 02:43:52;;;;;;;22.60;20.66;;;;;;;1.29;66.65;100720.81;457798;114;922834;-72
2023/01/30 02:45:07;;;;;;;22.71;20.89;;;;;;;1.30;66.56;100727.88;462102;114;922519;-73
2023/01/30 02:46:27;;;;;;;21.73;19.87;;;;;;;1.29;66.45;100728.87;454110;116;923090;-72
2023/01/30 02:47:39;;;;;;;23.37;21.21;;;;;;;1.25;66.38;100726.50;455532;116;923044;-72
2023/01/30 02:48:56;;;;;;;23.63;21.51;;;;;;;1.25;66.41;100737.25;454592;114;922922;-72
2023/01/30 02:50:08;;;;;;;22.36;20.56;;;;;;;1.24;66.35;100730.18;452890;114;923036;-72
2023/01/30 02:51:18;;;;;;;22.77;20.84;;;;;;;1.25;66.62;100736.39;449482;115;922664;-73
2023/01/30 02:52:22;;;;;;;23.23;21.24;;;;;;;1.27;66.63;100729.02;450871;114;922577;-73
2023/01/30 02:53:27;;;;;;;22.79;20.89;;;;;;;1.29;66.49;100731.55;460518;113;922593;-73
2023/01/30 02:54:31;;;;;;;22.03;20.09;;;;;;;1.29;66.35;100728.87;452558;114;922930;-73
2023/01/30 02:55:34;;;;;;;23.55;21.23;;;;;;;1.28;66.33;100725.34;446701;117;922785;-72
2023/01/30 02:56:46;;;;;;;23.56;21.27;;;;;;;1.28;66.27;100721.80;448084;115;922749;-72
2023/01/30 02:57:50;;;;;;;23.35;21.26;;;;;;;1.29;66.40;100718.98;454875;114;922926;-72
2023/01/30 02:59:04;;;;;;;21.82;19.76;;;;;;;1.32;66.53;100720.53;455195;116;922746;-73
2023/01/30 03:00:11;;;;;;;21.66;19.62;;;;;;;1.34;66.39;100715.83;457138;114;922497;-72
2023/01/30 03:01:29;;;;;;;22.48;20.35;;;;;;;1.36;66.29;100721.91;459421;114;922615;-73
2023/01/30 03:02:49;;;;;;;21.14;19.10;;;;;;;1.36;66.29;100724.59;454595;116;922640;-72
2023/01/30 03:04:08;;;;;;;22.22;20.13;;;;;;;1.35;66.06;100731.80;454694;113;922521;-72
2023/01/30 03:05:41;;;;;;;20.71;19.01;;;;;;;1.34;66.21;100718.52;459599;114;922663;-72
2023/01/30 03:07:00;;;;;;;22.22;20.20;;;;;;;1.33;66.17;100727.56;454055;116;922551;-72
2023/01/30 03:08:19;;;;;;;21.73;19.97;;;;;;;1.32;66.09;100724.06;449347;117;923000;-72
2023/01/30 03:09:45;;;;;;;21.41;19.51;;;;;;;1.32;66.18;100723.22;453301;116;922624;-72
2023/01/30 03:10:52;;;;;;;21.11;19.42;;;;;;;1.30;66.19;100717.98;458120;113;923369;-72
2023/01/30 03:11:59;;;;;;;22.01;20.02;;;;;;;1.28;65.99;100725.34;457509;115;922583;-73
2023/01/30 03:13:30;;;;;;;21.21;19.39;;;;;;;1.27;65.97;100728.20;447144;116;922709;-73
2023/01/30 03:14:37;;;;;;;20.53;18.75;;;;;;;1.24;66.10;100722.13;449568;113;923094;-73
2023/01/30 03:16:08;;;;;;;20.51;18.88;;;;;;;1.25;66.12;100722.97;459807;113;922533;-72
2023/01/30 03:17:14;;;;;;;20.18;18.31;;;;;;;1.24;66.03;100718.59;450645;116;922497;-73
2023/01/30 03:18:19;;;;;;;20.97;19.12;;;;;;;1.24;66.19;100721.27;453366;113;922846;-72
2023/01/30 03:19:22;;;;;;;22.38;20.50;;;;;;;1.25;66.41;100715.76;452345;113;923028;-72
2023/01/30 03:20:25;;;;;;;20.54;18.60;;;;;;;1.29;66.51;100716.29;459091;113;922761;-71
2023/01/30 03:21:28;;;;;;;19.76;17.90;;;;;;;1.33;66.43;100720.35;464566;113;922479;-73
2023/01/30 03:22:33;;;;;;;20.16;18.58;;;;;;;1.36;66.53;100720.06;466515;113;922690;-72
2023/01/30 03:23:36;;;;;;;21.26;19.52;;;;;;;1.39;66.38;100717.06;447991;116;922728;-72
2023/01/30 03:24:39;;;;;;;21.01;18.93;;;;;;;1.41;66.26;100723.14;445083;117;922615;-72
2023/01/30 03:25:45;;;;;;;20.64;18.73;;;;;;;1.43;66.16;100718.47;463682;113;922598;-73
2023/01/30 03:26:58;;;;;;;21.14;18.33;;;;;;;1.43;66.06;100723.84;455093;116;930431;-72
2023/01/30 03:28:03;;;;;;;19.97;18.33;;;;;;;1.45;66.09;100727.20;448081;117;922536;-72
2023/01/30 03:29:06;;;;;;;18.86;17.34;;;;;;;1.49;66.08;100722.39;451489;116;922955;-70
2023/01/30 03:30:10;;;;;;;19.32;17.82;;;;;;;1.50;65.96;100721.36;441923;120;930646;-72
2023/01/30 03:31:13;;;;;;;19.87;18.23;;;;;;;1.49;65.78;100717.83;441128;118;923281;-72
2023/01/30 03:32:18;;;;;;;19.37;17.77;;;;;;;1.49;65.74;100720.52;453291;115;922625;-72
2023/01/30 03:33:21;;;;;;;20.02;18.31;;;;;;;1.49;65.78;100717.02;448245;117;922675;-72
2023/01/30 03:34:25;;;;;;;19.53;17.90;;;;;;;1.49;65.65;100715.14;449743;118;922596;-72
2023/01/30 03:35:29;;;;;;;18.39;16.90;;;;;;;1.51;65.79;100721.22;444210;118;922491;-73
2023/01/30 03:36:32;;;;;;;19.51;17.88;;;;;;;1.54;65.77;100720.08;442382;120;922894;-72
2023/01/30 03:37:36;;;;;;;19.41;17.64;;;;;;;1.56;65.75;100718.06;449964;118;922947;-73
2023/01/30 03:38:39;;;;;;;19.08;17.57;;;;;;;1.58;65.74;100710.70;454682;116;923219;-73
2023/01/30 03:39:42;;;;;;;18.36;16.76;;;;;;;1.60;65.61;100711.37;455433;115;922471;-72
2023/01/30 03:40:46;;;;;;;18.77;17.03;;;;;;;1.61;65.63;100715.76;447627;118;922616;-72
2023/01/30 03:41:49;;;;;;;18.37;16.82;;;;;;;1.61;65.51;100715.76;449666;116;922663;-72
2023/01/30 03:42:53;;;;;;;19.61;17.92;;;;;;;1.61;65.45;100711.23;458158;115;922432;-72
2023/01/30 03:43:56;;;;;;;17.62;16.23;;;;;;;1.62;65.48;100714.77;446159;116;922556;-73
2023/01/30 03:45:00;;;;;;;19.21;16.97;;;;;;;1.64;65.52;100715.47;427983;120;930608;-72
2023/01/30 03:46:03;;;;;;;18.58;16.96;;;;;;;1.65;65.44;100715.30;446569;116;930651;-72
2023/01/30 03:47:06;;;;;;;18.88;17.45;;;;;;;1.65;65.16;100712.60;456039;113;922980;-73
2023/01/30 03:48:10;;;;;;;19.81;18.04;;;;;;;1.66;65.16;100713.45;466289;113;922522;-73
2023/01/30 03:49:13;;;;;;;18.79;17.16;;;;;;;1.65;64.93;100717.16;452923;113;930479;-73
2023/01/30 03:50:16;;;;;;;19.46;17.85;;;;;;;1.63;64.78;100709.25;454059;114;922892;-73
2023/01/30 03:51:19;;;;;;;19.24;17.48;;;;;;;1.61;64.66;100711.23;447395;118;923069;-73
2023/01/30 03:52:23;;;;;;;19.49;17.86;;;;;;;1.59;64.54;100720.47;448753;113;930617;-71
2023/01/30 03:53:27;;;;;;;19.50;17.68;;;;;;;1.55;64.64;100717.22;455961;115;922682;-72
2023/01/30 03:54:30;;;;;;;18.54;16.93;;;;;;;1.54;64.66;100717.39;460318;113;922546;-73
2023/01/30 03:55:34;;;;;;;18.02;16.55;;;;;;;1.54;64.63;100728.14;460878;113;922479;-72
2023/01/30 03:56:37;;;;;;;18.76;17.14;;;;;;;1.52;64.55;100728.28;453772;117;922649;-72
2023/01/30 03:57:41;;;;;;;19.21;17.21;;;;;;;1.52;64.64;100728.28;454990;116;922758;-73
2023/01/30 03:58:44;;;;;;;19.24;17.71;;;;;;;1.51;64.50;100731.97;456606;116;922541;-72
2023/01/30 03:59:55;;;;;;;18.23;16.78;;;;;;;1.50;64.53;100741.02;456362;116;922623;-72
2023/01/30 04:00:58;;;;;;;18.81;17.07;;;;;;;1.47;64.48;100733.28;457397;114;922649;-72
2023/01/30 04:02:02;;;;;;;18.50;17.02;;;;;;;1.47;64.33;100737.80;453828;117;930578;-72
2023/01/30 04:03:05;;;;;;;18.66;17.01;;;;;;;1.44;64.31;100730.88;454671;113;922755;-72
2023/01/30 04:04:08;;;;;;;18.59;17.02;;;;;;;1.44;64.31;100740.77;456784;113;922429;-72
2023/01/30 04:05:11;;;;;;;19.46;17.47;;;;;;;1.43;64.43;100745.34;456129;113;922539;-73
2023/01/30 04:06:16;;;;;;;18.48;17.07;;;;;;;1.41;64.35;100741.95;457173;113;922542;-72
2023/01/30 04:07:19;;;;;;;18.69;17.16;;;;;;;1.39;64.26;100743.92;453736;116;923131;-73
2023/01/30 04:08:24;;;;;;;18.65;16.89;;;;;;;1.37;64.17;100745.09;446285;118;922555;-72
2023/01/30 04:09:28;;;;;;;20.57;18.52;;;;;;;1.35;64.04;100747.07;439031;118;922542;-72
2023/01/30 04:10:31;;;;;;;19.55;17.39;;;;;;;1.32;63.98;100745.55;445584;117;922540;-72
2023/01/30 04:11:34;;;;;;;19.01;17.42;;;;;;;1.29;64.01;100744.98;443213;117;922502;-72
2023/01/30 04:12:38;;;;;;;17.75;16.51;;;;;;;1.28;64.20;100746.83;447333;118;922623;-72
2023/01/30 04:13:41;;;;;;;19.61;17.70;;;;;;;1.27;64.27;100755.06;439135;120;923036;-73
2023/01/30 04:14:45;;;;;;;21.39;17.91;;;;;;;1.26;64.27;100748.84;433792;119;930607;-72
2023/01/30 04:15:50;;;;;;;18.49;16.76;;;;;;;1.25;64.16;100753.36;450465;117;922506;-72
2023/01/30 04:17:00;;;;;;;;;;;;;;;1.24;64.11;100754.34;448406;118;922064;-72
2023/01/30 04:18:08;;;;;;;17.79;16.16;;;;;;;1.22;64.10;100759.02;443286;119;922357;-73
2023/01/30 04:19:28;;;;;;;18.26;16.81;;;;;;;1.19;64.30;100759.33;437382;120;922636;-73
2023/01/30 04:20:32;;;;;;;18.51;16.89;;;;;;;1.17;64.40;100765.83;442611;118;922704;-71
2023/01/30 04:21:36;;;;;;;20.22;18.50;;;;;;;1.15;64.30;100763.32;447363;118;922605;-72
2023/01/30 04:22:39;;;;;;;18.91;17.36;;;;;;;1.15;64.42;100767.84;441549;120;930512;-72
2023/01/30 04:23:42;;;;;;;19.66;18.06;;;;;;;1.13;64.36;100765.30;441472;118;922806;-73
2023/01/30 04:24:45;;;;;;;19.23;17.45;;;;;;;1.13;64.50;100767.13;441587;120;922437;-73
2023/01/30 04:25:49;;;;;;;19.00;17.23;;;;;;;1.13;64.46;100764.45;450948;116;922565;-73
2023/01/30 04:26:53;;;;;;;18.00;16.57;;;;;;;1.13;64.39;100770.67;447036;117;922600;-72
2023/01/30 04:27:56;;;;;;;18.61;17.09;;;;;;;1.13;64.38;100767.13;448996;118;924994;-72
2023/01/30 04:29:01;;;;;;;19.15;17.47;;;;;;;1.13;64.34;100759.08;446786;118;922570;-72
2023/01/30 04:30:05;;;;;;;18.45;16.87;;;;;;;1.12;64.25;100760.92;447944;116;922856;-73
2023/01/30 04:31:09;;;;;;;19.97;18.32;;;;;;;1.14;64.44;100769.68;449261;117;922794;-73
2023/01/30 04:32:32;;;;;;;19.21;17.56;;;;;;;1.16;64.44;100764.14;447441;118;922568;-72
2023/01/30 04:33:35;;;;;;;19.70;18.12;;;;;;;1.20;64.72;100769.09;440483;120;922803;-73
2023/01/30 04:34:40;;;;;;;19.51;17.90;;;;;;;1.24;64.82;100767.78;439883;118;923136;-73
2023/01/30 04:42:34;;;;;;;21.06;19.17;;;;;;;1.26;64.55;100767.64;442434;118;922548;-73
2023/01/30 04:43:42;;;;;;;21.24;19.33;;;;;;;1.21;64.56;100769.93;440992;118;922656;-72
2023/01/30 04:45:02;;;;;;;20.70;18.71;;;;;;;1.18;64.56;100779.12;442098;118;922574;-73
2023/01/30 04:46:07;;;;;;;21.68;19.58;;;;;;;1.17;64.50;100769.37;441369;120;922489;-72
2023/01/30 04:47:10;;;;;;;22.09;20.09;;;;;;;1.15;64.58;100771.38;441503;120;930570;-73
2023/01/30 04:48:13;;;;;;;20.94;19.01;;;;;;;1.15;64.44;100771.38;443911;118;922556;-73
2023/01/30 04:49:17;;;;;;;20.92;19.32;;;;;;;1.14;64.32;100769.68;439238;120;922691;-73
2023/01/30 04:50:20;;;;;;;21.45;19.53;;;;;;;1.14;64.33;100769.68;439486;118;922702;-73
2023/01/30 04:51:23;;;;;;;20.76;18.99;;;;;;;1.13;64.17;100767.98;443348;118;922685;-73
2023/01/30 04:52:26;;;;;;;20.24;18.62;;;;;;;1.13;64.24;100772.51;444313;118;922571;-74
2023/01/30 04:53:29;;;;;;;20.01;18.31;;;;;;;1.11;64.25;100772.64;443040;118;922534;-73
2023/01/30 04:54:33;;;;;;;20.31;18.49;;;;;;;1.12;64.29;100766.28;441807;118;923050;-71
2023/01/30 04:55:36;;;;;;;19.52;17.75;;;;;;;1.12;64.26;100768.97;441560;118;923004;-72
2023/01/30 04:56:39;;;;;;;20.76;18.81;;;;;;;1.12;64.21;100771.66;450399;116;922550;-72
2023/01/30 04:57:43;;;;;;;21.27;19.36;;;;;;;1.13;64.17;100773.35;452635;115;922987;-72
2023/01/30 04:58:46;;;;;;;21.16;19.16;;;;;;;1.13;64.18;100767.13;449361;116;922867;-73
2023/01/30 04:59:49;;;;;;;20.68;18.99;;;;;;;1.13;64.27;100773.35;445108;118;922586;-72
2023/01/30 05:00:53;;;;;;;21.02;18.91;;;;;;;1.14;64.21;100774.20;448244;116;922771;-72
2023/01/30 05:01:56;;;;;;;21.54;19.37;;;;;;;1.15;64.32;100773.21;451971;116;922589;-72
2023/01/30 05:03:00;;;;;;;20.66;18.99;;;;;;;1.15;64.28;100774.06;449433;116;922560;-71
2023/01/30 05:04:04;;;;;;;20.96;18.82;;;;;;;1.14;64.18;100767.00;450462;115;922848;-72
2023/01/30 05:05:07;;;;;;;20.03;18.39;;;;;;;1.15;64.13;100768.69;455686;116;922472;-72
2023/01/30 05:06:11;;;;;;;20.21;18.56;;;;;;;1.14;64.08;100763.46;450936;116;922799;-73
2023/01/30 05:07:14;;;;;;;20.12;18.29;;;;;;;1.13;64.21;100765.30;449593;116;922574;-72
2023/01/30 05:08:17;;;;;;;19.32;17.59;;;;;;;1.14;64.20;100763.46;450551;115;922446;-73
2023/01/30 05:09:20;;;;;;;22.23;19.54;;;;;;;1.13;64.23;100761.77;452377;116;922553;-72
2023/01/30 05:10:23;;;;;;;19.44;17.83;;;;;;;1.13;64.16;100764.45;455732;116;922554;-73
2023/01/30 05:11:28;;;;;;;19.60;17.79;;;;;;;1.13;64.28;100765.30;455679;114;922536;-73
2023/01/30 05:12:31;;;;;;;21.04;19.24;;;;;;;1.13;64.25;100767.98;455880;114;923095;-73
2023/01/30 05:13:34;;;;;;;20.78;19.05;;;;;;;1.13;64.18;100761.77;457959;114;922697;-73
2023/01/30 05:14:40;;;;;;;19.64;17.91;;;;;;;1.11;64.30;100759.22;459387;114;922659;-72
2023/01/30 05:15:44;;;;;;;21.33;19.44;;;;;;;1.14;64.39;100763.46;460377;114;922513;-73
2023/01/30 05:16:47;;;;;;;21.47;19.57;;;;;;;1.14;64.39;100763.46;462364;114;922581;-72
2023/01/30 05:17:50;;;;;;;19.74;18.04;;;;;;;1.15;64.40;100762.47;455073;113;930454;-73